Time;durP1;ratioP1;P1;durP2;ratioP2;P2;SDS_P1;SDS_P2;PMS_P1;PMS_P2;Temp;Humidity;BMP_temperature;BMP_pressure;BME280_temperature;BME280_humidity;BME280_pressure;Samples;Min_cycle;Max_cycle;Signal;HPM_P1;HPM_P2
2024/03/17 00:00:56;;;;;;;;;;;6.30;99.90;;;;;;2062610;28;19964;-76
2024/03/17 00:01:56;;;;;;;;;;;6.30;99.90;;;;;;2065956;28;20331;-74
2024/03/17 00:02:57;;;;;;;;;;;6.30;99.90;;;;;;2067609;28;19918;-76
2024/03/17 00:03:58;;;;;;;;;;;6.30;99.90;;;;;;2067086;28;20397;-74
2024/03/17 00:04:59;;;;;;;;;;;6.30;99.90;;;;;;2070933;28;19921;-74
2024/03/17 00:06:00;;;;;;;;;;;6.30;99.90;;;;;;2069418;28;20038;-74
2024/03/17 00:07:01;;;;;;;;;;;6.40;99.90;;;;;;2068616;28;19917;-75
2024/03/17 00:08:04;;;;;;;;;;;6.30;99.90;;;;;;2069627;28;19987;-74
2024/03/17 00:09:06;;;;;;;;;;;6.40;99.90;;;;;;2069942;28;19924;-75
2024/03/17 00:10:07;;;;;;;;;;;6.30;99.90;;;;;;2067371;28;19917;-75
2024/03/17 00:11:07;;;;;;;;;;;6.30;99.90;;;;;;2070306;28;19914;-75
2024/03/17 00:12:08;;;;;;;;;;;6.30;99.90;;;;;;2066636;28;19917;-74
2024/03/17 00:13:09;;;;;;;;;;;6.30;99.90;;;;;;2066409;28;20431;-74
2024/03/17 00:14:09;;;;;;;;;;;6.30;99.90;;;;;;2061270;28;20401;-74
2024/03/17 00:15:10;;;;;;;;;;;6.30;99.90;;;;;;2054968;28;19949;-75
2024/03/17 00:16:12;;;;;;;;;;;6.30;99.90;;;;;;2062309;28;19913;-74
2024/03/17 00:17:15;;;;;;;;;;;6.30;99.90;;;;;;2069150;28;20159;-73
2024/03/17 00:18:16;;;;;;;;;;;6.30;99.90;;;;;;2067161;28;19914;-75
2024/03/17 00:19:16;;;;;;;;;;;6.30;99.90;;;;;;2059632;28;20141;-74
2024/03/17 00:20:20;;;;;;;;;;;6.20;99.90;;;;;;2067419;28;19944;-74
2024/03/17 00:21:21;;;;;;;;;;;6.20;99.90;;;;;;2066820;28;20205;-72
2024/03/17 00:22:21;;;;;;;;;;;6.20;99.90;;;;;;2058895;28;19918;-73
2024/03/17 00:23:22;;;;;;;;;;;6.20;99.90;;;;;;2058792;28;19986;-74
2024/03/17 00:24:23;;;;;;;;;;;6.20;99.90;;;;;;2066720;28;19996;-72
2024/03/17 00:25:23;;;;;;;;;;;6.10;99.90;;;;;;2066162;28;19929;-72
2024/03/17 00:26:24;;;;;;;;;;;6.10;99.90;;;;;;2058936;28;20021;-74
2024/03/17 00:27:24;;;;;;;;;;;6.10;99.90;;;;;;2060704;28;20305;-74
2024/03/17 00:28:25;;;;;;;;;;;6.10;99.90;;;;;;2069834;28;19972;-76
2024/03/17 00:29:25;;;;;;;;;;;6.10;99.90;;;;;;2059619;28;19918;-76
2024/03/17 00:30:26;;;;;;;;;;;6.10;99.90;;;;;;2066311;28;19964;-75
2024/03/17 00:31:26;;;;;;;;;;;6.10;99.90;;;;;;2065438;28;19926;-76
2024/03/17 00:32:26;;;;;;;;;;;6.10;99.90;;;;;;2064105;28;19917;-74
2024/03/17 00:33:28;;;;;;;;;;;6.10;99.90;;;;;;2069997;28;19924;-75
2024/03/17 00:34:29;;;;;;;;;;;6.10;99.90;;;;;;2070217;28;19914;-74
2024/03/17 00:35:30;;;;;;;;;;;6.10;99.90;;;;;;2060421;28;19952;-74
2024/03/17 00:36:31;;;;;;;;;;;6.00;99.90;;;;;;2068561;28;19920;-74
2024/03/17 00:37:32;;;;;;;;;;;6.10;99.90;;;;;;2060695;28;19991;-76
2024/03/17 00:38:33;;;;;;;;;;;6.00;99.90;;;;;;2071119;28;19925;-76
2024/03/17 00:39:33;;;;;;;;;;;6.00;99.90;;;;;;2065276;28;19927;-75
2024/03/17 00:40:34;;;;;;;;;;;6.00;99.90;;;;;;2064719;28;19971;-76
2024/03/17 00:41:34;;;;;;;;;;;6.00;99.90;;;;;;2068644;28;20419;-77
2024/03/17 00:42:35;;;;;;;;;;;6.00;99.90;;;;;;2071393;28;19921;-73
2024/03/17 00:43:36;;;;;;;;;;;6.00;99.90;;;;;;2070683;28;19928;-74
2024/03/17 00:44:37;;;;;;;;;;;6.00;99.90;;;;;;2070466;28;20064;-75
2024/03/17 00:45:37;;;;;;;;;;;5.90;99.90;;;;;;2072191;28;20288;-75
2024/03/17 00:46:39;;;;;;;;;;;5.90;99.90;;;;;;2077374;28;20354;-74
2024/03/17 00:47:40;;;;;;;;;;;5.90;99.90;;;;;;2068589;28;19921;-73
2024/03/17 00:48:40;;;;;;;;;;;5.90;99.90;;;;;;2072107;28;19913;-73
2024/03/17 00:49:41;;;;;;;;;;;5.90;99.90;;;;;;2062886;28;19940;-76
2024/03/17 00:50:41;;;;;;;;;;;5.90;99.90;;;;;;2061040;28;19918;-75
2024/03/17 00:51:42;;;;;;;;;;;5.90;99.90;;;;;;2064029;28;20380;-74
2024/03/17 00:52:44;;;;;;;;;;;5.90;99.90;;;;;;2063086;28;19960;-76
2024/03/17 00:53:44;;;;;;;;;;;5.80;99.90;;;;;;2068793;28;19953;-72
2024/03/17 00:54:48;;;;;;;;;;;5.80;99.90;;;;;;2072024;28;20407;-73
2024/03/17 00:55:52;;;;;;;;;;;5.80;99.90;;;;;;2058646;28;19914;-74
2024/03/17 00:56:52;;;;;;;;;;;5.80;99.90;;;;;;2053345;28;19992;-74
2024/03/17 00:57:54;;;;;;;;;;;5.70;99.90;;;;;;2067826;28;20494;-72
2024/03/17 00:58:54;;;;;;;;;;;5.70;99.90;;;;;;2068496;28;19924;-74
2024/03/17 00:59:56;;;;;;;;;;;5.80;99.90;;;;;;2068288;28;20296;-72
2024/03/17 01:00:56;;;;;;;;;;;5.80;99.90;;;;;;2068704;28;19957;-73
2024/03/17 01:01:57;;;;;;;;;;;5.70;99.90;;;;;;2065404;28;19913;-72
2024/03/17 01:02:57;;;;;;;;;;;5.70;99.90;;;;;;2062175;28;19926;-73
2024/03/17 01:03:58;;;;;;;;;;;5.70;99.90;;;;;;2067064;28;19944;-77
2024/03/17 01:04:58;;;;;;;;;;;5.60;99.90;;;;;;2070629;28;20334;-75
2024/03/17 01:05:59;;;;;;;;;;;5.70;99.90;;;;;;2063595;28;19957;-74
2024/03/17 01:06:59;;;;;;;;;;;5.70;99.90;;;;;;2054434;28;20554;-72
2024/03/17 01:08:00;;;;;;;;;;;5.70;99.90;;;;;;2061423;28;19918;-72
2024/03/17 01:09:00;;;;;;;;;;;5.70;99.90;;;;;;2070758;28;19918;-77
2024/03/17 01:10:01;;;;;;;;;;;5.70;99.90;;;;;;2069259;28;19955;-78
2024/03/17 01:11:03;;;;;;;;;;;5.60;99.90;;;;;;2059698;28;19922;-77
2024/03/17 01:12:03;;;;;;;;;;;5.70;99.90;;;;;;2067804;28;19917;-76
2024/03/17 01:13:05;;;;;;;;;;;5.70;99.90;;;;;;2068627;28;19921;-76
2024/03/17 01:14:07;;;;;;;;;;;5.70;99.90;;;;;;2068325;28;19917;-76
2024/03/17 01:15:08;;;;;;;;;;;5.70;99.90;;;;;;2068109;28;19917;-76
2024/03/17 01:16:08;;;;;;;;;;;5.70;99.90;;;;;;2052036;28;19945;-76
2024/03/17 01:17:09;;;;;;;;;;;5.70;99.90;;;;;;2058932;28;19928;-77
2024/03/17 01:18:09;;;;;;;;;;;5.60;99.90;;;;;;2069652;28;20330;-75
2024/03/17 01:19:10;;;;;;;;;;;5.60;99.90;;;;;;2070442;28;19936;-76
2024/03/17 01:20:11;;;;;;;;;;;5.60;99.90;;;;;;2068472;28;19941;-76
2024/03/17 01:21:11;;;;;;;;;;;5.60;99.90;;;;;;2068945;28;20322;-76
2024/03/17 01:22:12;;;;;;;;;;;5.60;99.90;;;;;;2069566;28;19918;-76
2024/03/17 01:23:13;;;;;;;;;;;5.60;99.90;;;;;;2067317;28;20028;-76
2024/03/17 01:24:14;;;;;;;;;;;5.60;99.90;;;;;;2061268;28;19918;-77
2024/03/17 01:25:15;;;;;;;;;;;5.60;99.90;;;;;;2059504;28;19926;-76
2024/03/17 01:26:16;;;;;;;;;;;5.60;99.90;;;;;;2067721;28;20362;-75
2024/03/17 01:27:16;;;;;;;;;;;5.60;99.90;;;;;;2067869;28;19918;-76
2024/03/17 01:28:17;;;;;;;;;;;5.50;99.90;;;;;;2060931;28;20385;-73
2024/03/17 01:29:17;;;;;;;;;;;5.50;99.90;;;;;;2059968;28;20489;-73
2024/03/17 01:30:19;;;;;;;;;;;5.50;99.90;;;;;;2055575;28;21016;-74
2024/03/17 01:31:19;;;;;;;;;;;5.50;99.90;;;;;;2052934;28;20585;-73
2024/03/17 01:32:20;;;;;;;;;;;5.50;99.90;;;;;;2066977;28;19918;-73
2024/03/17 01:33:20;;;;;;;;;;;5.50;99.90;;;;;;2067038;28;19913;-73
2024/03/17 01:34:21;;;;;;;;;;;5.50;99.90;;;;;;2066882;28;19913;-73
2024/03/17 01:35:22;;;;;;;;;;;5.50;99.90;;;;;;2064076;28;20465;-74
2024/03/17 01:36:23;;;;;;;;;;;5.50;99.90;;;;;;2064917;28;19917;-76
2024/03/17 01:37:24;;;;;;;;;;;5.40;99.90;;;;;;2067306;28;19918;-75
2024/03/17 01:38:24;;;;;;;;;;;5.40;99.90;;;;;;2057537;28;20005;-73
2024/03/17 01:39:25;;;;;;;;;;;5.40;99.90;;;;;;2059545;28;19914;-72
2024/03/17 01:40:25;;;;;;;;;;;5.40;99.90;;;;;;2058073;28;19913;-73
2024/03/17 01:41:26;;;;;;;;;;;5.40;99.90;;;;;;2065783;28;20016;-73
2024/03/17 01:42:26;;;;;;;;;;;5.40;99.90;;;;;;2068255;28;19926;-74
2024/03/17 01:43:27;;;;;;;;;;;5.40;99.90;;;;;;2066614;28;20385;-73
2024/03/17 01:44:28;;;;;;;;;;;5.40;99.90;;;;;;2066837;28;19917;-74
2024/03/17 01:45:30;;;;;;;;;;;5.40;99.90;;;;;;2065327;28;20405;-73
2024/03/17 01:46:30;;;;;;;;;;;5.40;99.90;;;;;;2067086;28;19929;-73
2024/03/17 01:47:31;;;;;;;;;;;5.30;99.90;;;;;;2067173;28;19921;-74
2024/03/17 01:48:31;;;;;;;;;;;5.30;99.90;;;;;;2065345;28;19957;-73
2024/03/17 01:49:32;;;;;;;;;;;5.30;99.90;;;;;;2066226;28;20268;-74
2024/03/17 01:50:34;;;;;;;;;;;5.30;99.90;;;;;;2066458;28;19921;-74
2024/03/17 01:51:35;;;;;;;;;;;5.30;99.90;;;;;;2065363;28;19925;-74
2024/03/17 01:52:35;;;;;;;;;;;5.30;99.90;;;;;;2066992;28;20474;-74
2024/03/17 01:53:37;;;;;;;;;;;5.30;99.90;;;;;;2066653;28;19920;-74
2024/03/17 01:54:38;;;;;;;;;;;5.20;99.90;;;;;;2059263;28;20347;-73
2024/03/17 01:55:39;;;;;;;;;;;5.20;99.90;;;;;;2064734;28;19941;-74
2024/03/17 01:56:40;;;;;;;;;;;5.20;99.90;;;;;;2066974;28;19925;-73
2024/03/17 01:57:40;;;;;;;;;;;5.20;99.90;;;;;;2075664;28;19909;-74
2024/03/17 01:58:43;;;;;;;;;;;5.20;99.90;;;;;;2075913;28;20501;-74
2024/03/17 01:59:44;;;;;;;;;;;5.20;99.90;;;;;;2075137;28;19924;-73
2024/03/17 02:00:45;;;;;;;;;;;5.20;99.90;;;;;;2067776;28;19917;-73
2024/03/17 02:01:45;;;;;;;;;;;5.20;99.90;;;;;;2064740;28;19922;-73
2024/03/17 02:02:46;;;;;;;;;;;5.10;99.90;;;;;;2067162;28;19925;-73
2024/03/17 02:03:46;;;;;;;;;;;5.10;99.90;;;;;;2067330;28;20423;-74
2024/03/17 02:04:47;;;;;;;;;;;5.10;99.90;;;;;;2065109;28;19918;-72
2024/03/17 02:05:48;;;;;;;;;;;5.10;99.90;;;;;;2067604;28;19922;-73
2024/03/17 02:06:49;;;;;;;;;;;5.10;99.90;;;;;;2067883;28;20296;-74
2024/03/17 02:07:49;;;;;;;;;;;5.20;99.90;;;;;;2056855;28;19926;-73
2024/03/17 02:08:54;;;;;;;;;;;5.20;99.90;;;;;;2059096;28;20004;-74
2024/03/17 02:09:56;;;;;;;;;;;5.20;99.90;;;;;;2067734;28;20193;-74
2024/03/17 02:10:56;;;;;;;;;;;5.20;99.90;;;;;;2067879;28;19925;-73
2024/03/17 02:11:57;;;;;;;;;;;5.20;99.90;;;;;;2066753;28;19917;-73
2024/03/17 02:12:58;;;;;;;;;;;5.20;99.90;;;;;;2067667;28;20477;-72
2024/03/17 02:13:59;;;;;;;;;;;5.20;99.90;;;;;;2066826;28;20493;-74
2024/03/17 02:15:00;;;;;;;;;;;5.20;99.90;;;;;;2066770;28;19967;-74
2024/03/17 02:16:00;;;;;;;;;;;5.20;99.90;;;;;;2067720;28;19917;-74
2024/03/17 02:17:02;;;;;;;;;;;5.20;99.90;;;;;;2067789;28;19933;-74
2024/03/17 02:18:02;;;;;;;;;;;5.20;99.90;;;;;;2067493;28;19960;-73
2024/03/17 02:19:03;;;;;;;;;;;5.20;99.90;;;;;;2066865;28;19968;-73
2024/03/17 02:20:07;;;;;;;;;;;5.10;99.90;;;;;;2068019;28;19917;-73
2024/03/17 02:21:09;;;;;;;;;;;5.10;99.90;;;;;;2058634;28;20596;-73
2024/03/17 02:22:16;;;;;;;;;;;5.10;99.90;;;;;;2058927;28;19917;-75
2024/03/17 02:23:18;;;;;;;;;;;5.20;99.90;;;;;;2065180;28;20126;-74
2024/03/17 02:24:19;;;;;;;;;;;5.20;99.90;;;;;;2059476;28;20005;-74
2024/03/17 02:25:19;;;;;;;;;;;5.20;99.90;;;;;;2067011;28;19972;-73
2024/03/17 02:26:21;;;;;;;;;;;5.20;99.90;;;;;;2068207;28;20406;-73
2024/03/17 02:27:21;;;;;;;;;;;5.20;99.90;;;;;;2067519;28;19917;-74
2024/03/17 02:28:22;;;;;;;;;;;5.20;99.90;;;;;;2067844;28;20039;-73
2024/03/17 02:29:22;;;;;;;;;;;5.20;99.90;;;;;;2068365;28;19945;-73
2024/03/17 02:30:23;;;;;;;;;;;5.20;99.90;;;;;;2068335;28;19918;-73
2024/03/17 02:31:23;;;;;;;;;;;5.20;99.90;;;;;;2068203;28;20295;-73
2024/03/17 02:32:25;;;;;;;;;;;5.20;99.90;;;;;;2067436;28;20372;-74
2024/03/17 02:33:26;;;;;;;;;;;5.10;99.90;;;;;;2066654;28;20008;-73
2024/03/17 02:34:26;;;;;;;;;;;5.10;99.90;;;;;;2068443;28;19913;-74
2024/03/17 02:35:27;;;;;;;;;;;5.10;99.90;;;;;;2067809;28;19956;-73
2024/03/17 02:36:28;;;;;;;;;;;5.00;99.90;;;;;;2066840;28;19924;-73
2024/03/17 02:37:28;;;;;;;;;;;5.00;99.90;;;;;;2059503;28;19953;-74
2024/03/17 02:39:48;;;;;;;;;;;5.00;99.90;;;;;;2061843;28;20359;-73
2024/03/17 02:40:48;;;;;;;;;;;5.00;99.90;;;;;;2067758;28;20008;-73
2024/03/17 02:41:49;;;;;;;;;;;5.00;99.90;;;;;;2068030;28;20425;-73
2024/03/17 02:42:50;;;;;;;;;;;5.00;99.90;;;;;;2067502;28;19959;-73
2024/03/17 02:43:50;;;;;;;;;;;5.00;99.90;;;;;;2051337;28;20562;-73
2024/03/17 02:44:51;;;;;;;;;;;5.00;99.90;;;;;;2051511;28;19965;-73
2024/03/17 02:45:52;;;;;;;;;;;4.90;99.90;;;;;;2051477;28;20335;-73
2024/03/17 02:46:52;;;;;;;;;;;4.90;99.90;;;;;;2059632;28;20004;-73
2024/03/17 02:47:53;;;;;;;;;;;4.90;99.90;;;;;;2059552;28;19922;-75
2024/03/17 02:48:53;;;;;;;;;;;4.80;99.90;;;;;;2059580;28;19918;-74
2024/03/17 02:49:54;;;;;;;;;;;4.80;99.90;;;;;;2059389;28;19925;-75
2024/03/17 02:50:55;;;;;;;;;;;4.80;99.90;;;;;;2067139;28;20661;-74
2024/03/17 02:51:56;;;;;;;;;;;4.80;99.90;;;;;;2068474;28;19918;-71
2024/03/17 02:52:56;;;;;;;;;;;4.70;99.90;;;;;;2068075;28;20004;-74
2024/03/17 02:53:59;;;;;;;;;;;4.70;99.90;;;;;;2067757;28;20380;-80
2024/03/17 02:55:00;;;;;;;;;;;4.70;99.90;;;;;;2062294;28;20398;-74
2024/03/17 02:56:00;;;;;;;;;;;4.60;99.90;;;;;;2059427;28;19989;-74
2024/03/17 02:57:01;;;;;;;;;;;4.60;99.90;;;;;;2059436;28;19917;-75
2024/03/17 02:58:02;;;;;;;;;;;4.60;99.90;;;;;;2051244;28;19918;-75
2024/03/17 02:59:02;;;;;;;;;;;4.50;99.90;;;;;;2059442;28;19922;-75
2024/03/17 03:00:05;;;;;;;;;;;4.50;99.90;;;;;;2067478;28;19921;-76
2024/03/17 03:01:06;;;;;;;;;;;4.50;99.90;;;;;;2067577;28;19920;-75
2024/03/17 03:02:06;;;;;;;;;;;4.50;99.90;;;;;;2068013;28;19952;-75
2024/03/17 03:03:06;;;;;;;;;;;4.50;99.90;;;;;;2067549;28;20398;-75
2024/03/17 03:04:07;;;;;;;;;;;4.50;99.90;;;;;;2067708;28;19921;-76
2024/03/17 03:05:08;;;;;;;;;;;4.50;99.90;;;;;;2067425;28;20617;-75
2024/03/17 03:06:09;;;;;;;;;;;4.50;99.90;;;;;;2067228;28;20008;-75
2024/03/17 03:07:09;;;;;;;;;;;4.50;99.90;;;;;;2068515;28;20444;-75
2024/03/17 03:08:10;;;;;;;;;;;4.50;99.90;;;;;;2068189;28;19952;-75
2024/03/17 03:09:14;;;;;;;;;;;4.50;99.90;;;;;;2067977;28;20474;-75
2024/03/17 03:10:15;;;;;;;;;;;4.50;99.90;;;;;;2067354;28;19948;-75
2024/03/17 03:11:16;;;;;;;;;;;4.60;99.90;;;;;;2067415;28;19918;-75
2024/03/17 03:12:17;;;;;;;;;;;4.50;99.90;;;;;;2067255;28;20536;-75
2024/03/17 03:13:17;;;;;;;;;;;4.50;99.90;;;;;;2067446;28;19913;-75
2024/03/17 03:14:18;;;;;;;;;;;4.50;99.90;;;;;;2067452;28;20339;-76
2024/03/17 03:15:19;;;;;;;;;;;4.50;99.90;;;;;;2067381;28;20006;-74
2024/03/17 03:16:20;;;;;;;;;;;4.50;99.90;;;;;;2068280;28;20180;-75
2024/03/17 03:17:20;;;;;;;;;;;4.50;99.90;;;;;;2067687;28;19913;-74
2024/03/17 03:18:21;;;;;;;;;;;4.40;99.90;;;;;;2067876;28;19917;-75
2024/03/17 03:19:21;;;;;;;;;;;4.40;99.90;;;;;;2075821;28;20186;-74
2024/03/17 03:20:22;;;;;;;;;;;4.30;99.90;;;;;;2071338;28;20298;-74
2024/03/17 03:21:22;;;;;;;;;;;4.40;99.90;;;;;;2063191;28;20350;-76
2024/03/17 03:22:23;;;;;;;;;;;4.40;99.90;;;;;;2067843;28;19979;-73
2024/03/17 03:23:23;;;;;;;;;;;4.30;99.90;;;;;;2067432;28;19953;-74
2024/03/17 03:24:24;;;;;;;;;;;4.40;99.90;;;;;;2067760;28;19914;-74
2024/03/17 03:25:24;;;;;;;;;;;4.30;99.90;;;;;;2067987;28;19913;-74
2024/03/17 03:26:25;;;;;;;;;;;4.30;99.90;;;;;;2067210;28;19921;-75
2024/03/17 03:27:25;;;;;;;;;;;4.30;99.90;;;;;;2067397;28;20435;-75
2024/03/17 03:28:26;;;;;;;;;;;4.30;99.90;;;;;;2068657;28;19918;-74
2024/03/17 03:29:26;;;;;;;;;;;4.30;99.90;;;;;;2059393;28;19921;-74
2024/03/17 03:30:27;;;;;;;;;;;4.30;99.90;;;;;;2067053;28;19972;-75
2024/03/17 03:31:28;;;;;;;;;;;4.30;99.90;;;;;;2065263;28;19914;-73
2024/03/17 03:32:28;;;;;;;;;;;4.30;99.90;;;;;;2067174;28;19917;-75
2024/03/17 03:33:29;;;;;;;;;;;4.30;99.90;;;;;;2059448;28;20344;-73
2024/03/17 03:34:30;;;;;;;;;;;4.20;99.90;;;;;;2051440;28;19964;-75
2024/03/17 03:35:31;;;;;;;;;;;4.30;99.90;;;;;;2050774;28;20416;-75
2024/03/17 03:36:31;;;;;;;;;;;4.30;99.90;;;;;;2059603;28;19918;-75
2024/03/17 03:37:31;;;;;;;;;;;4.30;99.90;;;;;;2067297;28;19960;-75
2024/03/17 03:38:33;;;;;;;;;;;4.40;99.90;;;;;;2059607;28;19946;-75
2024/03/17 03:39:36;;;;;;;;;;;4.40;99.90;;;;;;2059173;28;19976;-75
2024/03/17 03:40:36;;;;;;;;;;;4.50;99.90;;;;;;2059620;28;20573;-74
2024/03/17 03:41:37;;;;;;;;;;;4.50;99.90;;;;;;2067693;28;19921;-76
2024/03/17 03:42:38;;;;;;;;;;;4.50;99.90;;;;;;2063489;28;19925;-74
2024/03/17 03:43:38;;;;;;;;;;;4.50;99.90;;;;;;2068462;28;19918;-74
2024/03/17 03:44:39;;;;;;;;;;;4.60;99.90;;;;;;2066922;28;19917;-75
2024/03/17 03:45:40;;;;;;;;;;;4.60;99.90;;;;;;2067278;28;20443;-74
2024/03/17 03:46:41;;;;;;;;;;;4.70;99.90;;;;;;2067173;28;19935;-76
2024/03/17 03:47:42;;;;;;;;;;;4.70;99.90;;;;;;2059704;28;19917;-75
2024/03/17 03:48:43;;;;;;;;;;;4.60;99.90;;;;;;2066944;28;19921;-75
2024/03/17 03:49:45;;;;;;;;;;;4.60;99.90;;;;;;2067851;28;19917;-75
2024/03/17 03:50:45;;;;;;;;;;;4.60;99.90;;;;;;2067581;28;20375;-76
2024/03/17 03:51:46;;;;;;;;;;;4.70;99.90;;;;;;2068122;28;19917;-75
2024/03/17 03:52:46;;;;;;;;;;;4.70;99.90;;;;;;2075354;28;19943;-75
2024/03/17 03:53:47;;;;;;;;;;;4.70;99.90;;;;;;2075397;28;20292;-75
2024/03/17 03:54:50;;;;;;;;;;;4.70;99.90;;;;;;2067035;28;19914;-75
2024/03/17 03:55:54;;;;;;;;;;;4.80;99.90;;;;;;2067355;28;20379;-75
2024/03/17 03:56:54;;;;;;;;;;;4.80;99.90;;;;;;2067691;28;19917;-75
2024/03/17 03:57:55;;;;;;;;;;;4.80;99.90;;;;;;2067856;28;19922;-77
2024/03/17 03:58:55;;;;;;;;;;;4.80;99.90;;;;;;2067789;28;19940;-74
2024/03/17 03:59:56;;;;;;;;;;;4.90;99.90;;;;;;2067670;28;19917;-75
2024/03/17 04:00:56;;;;;;;;;;;4.90;99.90;;;;;;2067961;28;19914;-74
2024/03/17 04:01:58;;;;;;;;;;;5.00;99.90;;;;;;2067006;28;19968;-75
2024/03/17 04:02:59;;;;;;;;;;;5.00;99.90;;;;;;2058886;28;19913;-76
2024/03/17 04:04:00;;;;;;;;;;;5.00;99.90;;;;;;2067173;28;19917;-75
2024/03/17 04:05:00;;;;;;;;;;;5.10;99.90;;;;;;2067584;28;19971;-75
2024/03/17 04:06:05;;;;;;;;;;;5.10;99.90;;;;;;2066914;28;19963;-74
2024/03/17 04:07:07;;;;;;;;;;;5.00;99.90;;;;;;2067583;28;19925;-75
2024/03/17 04:08:08;;;;;;;;;;;5.10;99.90;;;;;;2067478;28;19913;-75
2024/03/17 04:09:09;;;;;;;;;;;5.10;99.90;;;;;;2067349;28;19921;-75
2024/03/17 04:10:09;;;;;;;;;;;5.10;99.90;;;;;;2067727;28;19964;-76
2024/03/17 04:11:11;;;;;;;;;;;5.20;99.90;;;;;;2067885;28;19963;-76
2024/03/17 04:12:12;;;;;;;;;;;5.20;99.90;;;;;;2067977;28;19921;-76
2024/03/17 04:13:13;;;;;;;;;;;5.20;99.90;;;;;;2067214;28;19917;-75
2024/03/17 04:14:14;;;;;;;;;;;5.20;99.90;;;;;;2067568;28;20404;-75
2024/03/17 04:15:14;;;;;;;;;;;5.20;99.90;;;;;;2068176;28;19927;-75
2024/03/17 04:16:15;;;;;;;;;;;5.20;99.90;;;;;;2067383;28;20371;-74
2024/03/17 04:17:16;;;;;;;;;;;5.20;99.90;;;;;;2067240;28;20334;-75
2024/03/17 04:18:17;;;;;;;;;;;5.30;99.90;;;;;;2068161;28;19914;-75
2024/03/17 04:19:18;;;;;;;;;;;5.30;99.90;;;;;;2067158;28;19964;-74
2024/03/17 04:20:18;;;;;;;;;;;5.30;99.90;;;;;;2067068;28;20212;-76
2024/03/17 04:21:21;;;;;;;;;;;5.30;99.90;;;;;;2068053;28;19925;-74
2024/03/17 04:22:24;;;;;;;;;;;5.30;99.90;;;;;;2067151;28;20386;-75
2024/03/17 04:23:25;;;;;;;;;;;5.30;99.90;;;;;;2067134;28;19960;-74
2024/03/17 04:24:25;;;;;;;;;;;5.30;99.90;;;;;;2062438;28;19917;-74
2024/03/17 04:25:25;;;;;;;;;;;5.30;99.90;;;;;;2058858;28;19976;-75
2024/03/17 04:26:26;;;;;;;;;;;5.30;99.90;;;;;;2066906;28;20449;-75
2024/03/17 04:27:27;;;;;;;;;;;5.30;99.90;;;;;;2067035;28;20007;-75
2024/03/17 04:28:27;;;;;;;;;;;5.30;99.90;;;;;;2066831;28;19980;-75
2024/03/17 04:29:28;;;;;;;;;;;5.30;99.90;;;;;;2071084;28;19919;-75
2024/03/17 04:30:28;;;;;;;;;;;5.30;99.90;;;;;;2067325;28;19963;-73
2024/03/17 04:31:29;;;;;;;;;;;5.40;99.90;;;;;;2063999;28;19917;-74
2024/03/17 04:32:30;;;;;;;;;;;5.40;99.90;;;;;;2068010;28;19996;-76
2024/03/17 04:33:32;;;;;;;;;;;5.40;99.90;;;;;;2067770;28;20003;-74
2024/03/17 04:34:32;;;;;;;;;;;5.40;99.90;;;;;;2067435;28;20439;-75
2024/03/17 04:35:36;;;;;;;;;;;5.40;99.90;;;;;;2067017;28;19928;-76
2024/03/17 04:36:36;;;;;;;;;;;5.40;99.90;;;;;;2066788;28;19917;-76
2024/03/17 04:37:39;;;;;;;;;;;5.50;99.90;;;;;;2062566;28;19913;-75
2024/03/17 04:38:39;;;;;;;;;;;5.40;99.90;;;;;;2062078;28;20175;-76
2024/03/17 04:39:42;;;;;;;;;;;5.40;99.90;;;;;;2067191;28;19987;-76
2024/03/17 04:40:42;;;;;;;;;;;5.50;99.90;;;;;;2066809;28;20338;-76
2024/03/17 04:41:44;;;;;;;;;;;5.50;99.90;;;;;;2068476;28;19918;-77
2024/03/17 04:42:45;;;;;;;;;;;5.50;99.90;;;;;;2065014;28;19923;-77
2024/03/17 04:43:46;;;;;;;;;;;5.50;99.90;;;;;;2062431;28;19933;-76
2024/03/17 04:44:46;;;;;;;;;;;5.50;99.90;;;;;;2062461;28;20023;-76
2024/03/17 04:45:47;;;;;;;;;;;5.60;99.90;;;;;;2067438;28;20380;-76
2024/03/17 04:46:48;;;;;;;;;;;5.50;99.90;;;;;;2066537;28;20646;-77
2024/03/17 04:47:49;;;;;;;;;;;5.50;99.90;;;;;;2054566;28;20352;-76
2024/03/17 04:48:49;;;;;;;;;;;5.50;99.90;;;;;;2050444;28;19922;-75
2024/03/17 04:49:50;;;;;;;;;;;5.50;99.90;;;;;;2055063;28;19918;-76
2024/03/17 04:50:50;;;;;;;;;;;5.60;99.90;;;;;;2063269;28;20361;-75
2024/03/17 04:51:50;;;;;;;;;;;5.50;99.90;;;;;;2066637;28;19924;-74
2024/03/17 04:52:51;;;;;;;;;;;5.60;99.90;;;;;;2058886;28;20000;-75
2024/03/17 04:53:51;;;;;;;;;;;5.60;99.90;;;;;;2062953;28;20191;-75
2024/03/17 04:54:52;;;;;;;;;;;5.60;99.90;;;;;;2058674;28;19917;-77
2024/03/17 04:55:59;;;;;;;;;;;5.60;99.90;;;;;;2058685;28;20165;-77
2024/03/17 04:56:59;;;;;;;;;;;5.60;99.90;;;;;;2058621;28;20447;-77
2024/03/17 04:58:00;;;;;;;;;;;5.50;99.90;;;;;;2058586;28;19930;-74
2024/03/17 04:59:00;;;;;;;;;;;5.50;99.90;;;;;;2066795;28;20244;-75
2024/03/17 05:00:02;;;;;;;;;;;5.50;99.90;;;;;;2066670;28;19917;-75
2024/03/17 05:01:09;;;;;;;;;;;5.50;99.90;;;;;;2063364;28;19917;-77
2024/03/17 05:02:09;;;;;;;;;;;5.50;99.90;;;;;;2063249;28;19910;-76
2024/03/17 05:03:10;;;;;;;;;;;5.50;99.90;;;;;;2066851;28;20004;-76
2024/03/17 05:04:10;;;;;;;;;;;5.50;99.90;;;;;;2058832;28;19918;-76
2024/03/17 05:05:11;;;;;;;;;;;5.50;99.90;;;;;;2066440;28;20287;-76
2024/03/17 05:06:11;;;;;;;;;;;5.50;99.90;;;;;;2066643;28;19922;-76
2024/03/17 05:07:12;;;;;;;;;;;5.50;99.90;;;;;;2066919;28;20386;-75
2024/03/17 05:08:12;;;;;;;;;;;5.60;99.90;;;;;;2066821;28;20399;-76
2024/03/17 05:09:13;;;;;;;;;;;5.60;99.90;;;;;;2066364;28;19953;-76
2024/03/17 05:10:14;;;;;;;;;;;5.60;99.90;;;;;;2058606;28;19920;-75
2024/03/17 05:11:16;;;;;;;;;;;5.60;99.90;;;;;;2066736;28;19918;-76
2024/03/17 05:12:16;;;;;;;;;;;5.60;99.90;;;;;;2058389;28;19971;-75
2024/03/17 05:13:17;;;;;;;;;;;5.60;99.90;;;;;;2054726;28;19918;-76
2024/03/17 05:14:19;;;;;;;;;;;5.60;99.90;;;;;;2066919;28;19913;-76
2024/03/17 05:15:19;;;;;;;;;;;5.60;99.90;;;;;;2067187;28;19917;-76
2024/03/17 05:16:22;;;;;;;;;;;5.60;99.90;;;;;;2067278;28;20457;-77
2024/03/17 05:17:22;;;;;;;;;;;5.60;99.90;;;;;;2068536;28;19960;-76
2024/03/17 05:18:25;;;;;;;;;;;5.60;99.90;;;;;;2068960;28;20326;-76
2024/03/17 05:19:26;;;;;;;;;;;5.60;99.90;;;;;;2070623;28;19918;-77
2024/03/17 05:20:26;;;;;;;;;;;5.60;99.90;;;;;;2067741;28;19967;-76
2024/03/17 05:21:30;;;;;;;;;;;5.70;99.90;;;;;;2068291;28;19992;-76
2024/03/17 05:22:31;;;;;;;;;;;5.70;99.90;;;;;;2060377;28;19926;-76
2024/03/17 05:23:32;;;;;;;;;;;5.70;99.90;;;;;;2063639;28;19920;-76
2024/03/17 05:24:33;;;;;;;;;;;5.70;99.90;;;;;;2056123;28;19941;-76
2024/03/17 05:25:36;;;;;;;;;;;5.70;99.90;;;;;;2056283;28;19929;-77
2024/03/17 05:26:37;;;;;;;;;;;5.70;99.90;;;;;;2056292;28;19914;-77
2024/03/17 05:27:37;;;;;;;;;;;5.70;99.90;;;;;;2060334;28;19922;-76
2024/03/17 05:28:38;;;;;;;;;;;5.70;99.90;;;;;;2065696;28;19924;-76
2024/03/17 05:29:38;;;;;;;;;;;5.70;99.90;;;;;;2068687;28;20384;-76
2024/03/17 05:30:39;;;;;;;;;;;5.70;99.90;;;;;;2067950;28;19999;-76
2024/03/17 05:31:39;;;;;;;;;;;5.70;99.90;;;;;;2066540;28;19914;-76
2024/03/17 05:32:40;;;;;;;;;;;5.70;99.90;;;;;;2068914;28;19917;-76
2024/03/17 05:33:40;;;;;;;;;;;5.70;99.90;;;;;;2067985;28;19960;-76
2024/03/17 05:34:41;;;;;;;;;;;5.70;99.90;;;;;;2059850;28;19964;-76
2024/03/17 05:35:48;;;;;;;;;;;5.70;99.90;;;;;;2067861;28;19920;-76
2024/03/17 05:36:50;;;;;;;;;;;5.70;99.90;;;;;;2060369;28;19921;-76
2024/03/17 05:37:50;;;;;;;;;;;5.70;99.90;;;;;;2068076;28;19955;-78
2024/03/17 05:38:51;;;;;;;;;;;5.80;99.90;;;;;;2067836;28;19924;-76
2024/03/17 05:39:51;;;;;;;;;;;5.80;99.90;;;;;;2059888;28;20323;-77
2024/03/17 05:40:55;;;;;;;;;;;5.80;99.90;;;;;;2067719;28;19918;-77
2024/03/17 05:41:55;;;;;;;;;;;5.80;99.90;;;;;;2067982;28;20016;-77
2024/03/17 05:42:56;;;;;;;;;;;5.80;99.90;;;;;;2068537;28;19917;-76
2024/03/17 05:43:58;;;;;;;;;;;5.80;99.90;;;;;;2059755;28;19941;-78
2024/03/17 05:44:58;;;;;;;;;;;5.80;99.90;;;;;;2068263;28;19921;-76
2024/03/17 05:46:00;;;;;;;;;;;5.70;99.90;;;;;;2068584;28;20072;-76
2024/03/17 05:47:01;;;;;;;;;;;5.70;99.90;;;;;;2068614;28;19918;-77
2024/03/17 05:48:05;;;;;;;;;;;5.80;99.90;;;;;;2067799;28;19980;-76
2024/03/17 05:49:06;;;;;;;;;;;5.80;99.90;;;;;;2067939;28;20287;-76
2024/03/17 05:50:07;;;;;;;;;;;5.80;99.90;;;;;;2068015;28;19913;-76
2024/03/17 05:51:08;;;;;;;;;;;5.80;99.90;;;;;;2063621;28;19960;-75
2024/03/17 05:52:09;;;;;;;;;;;5.80;99.90;;;;;;2067825;28;19967;-76
2024/03/17 05:53:09;;;;;;;;;;;5.80;99.90;;;;;;2055802;28;19945;-76
2024/03/17 05:54:11;;;;;;;;;;;5.80;99.90;;;;;;2067925;28;19976;-76
2024/03/17 05:55:12;;;;;;;;;;;5.80;99.90;;;;;;2060289;28;20048;-76
2024/03/17 05:56:12;;;;;;;;;;;5.70;99.90;;;;;;2063254;28;19956;-76
2024/03/17 05:57:16;;;;;;;;;;;5.80;99.90;;;;;;2059858;28;20000;-77
2024/03/17 05:58:16;;;;;;;;;;;5.80;99.90;;;;;;2065345;28;20418;-80
2024/03/17 05:59:17;;;;;;;;;;;5.80;99.90;;;;;;2065571;28;20031;-77
2024/03/17 06:00:17;;;;;;;;;;;5.80;99.90;;;;;;2064444;28;19917;-77
2024/03/17 06:01:19;;;;;;;;;;;5.80;99.90;;;;;;2067105;28;19936;-74
2024/03/17 06:02:19;;;;;;;;;;;5.80;99.90;;;;;;2066870;28;19921;-74